Time;durP1;ratioP1;P1;durP2;ratioP2;P2;SDS_P1;SDS_P2;PMS_P1;PMS_P2;Temp;Humidity;BMP_temperature;BMP_pressure;BME280_temperature;BME280_humidity;BME280_pressure;Samples;Min_cycle;Max_cycle;Signal;HPM_P1;HPM_P2
2023/08/06 00:00:20;;;;;;;16.05;7.35;;;;;;;23.17;70.83;99753.06;4940179;28;20094;-58
2023/08/06 00:02:45;;;;;;;16.30;7.22;;;;;;;23.17;70.92;99747.75;4956860;28;20462;-59
2023/08/06 00:05:11;;;;;;;18.70;7.35;;;;;;;23.16;71.13;99740.78;4959961;28;20046;-58
2023/08/06 00:07:37;;;;;;;16.50;6.43;;;;;;;23.17;70.85;99753.06;4961490;28;20038;-58
2023/08/06 00:10:04;;;;;;;15.07;6.65;;;;;;;23.19;70.29;99743.16;4938573;28;20424;-58
2023/08/06 00:12:30;;;;;;;20.92;6.68;;;;;;;23.20;69.81;99743.03;4956662;28;20111;-57
2023/08/06 00:14:55;;;;;;;12.80;6.75;;;;;;;23.22;69.82;99745.56;4952234;28;20470;-58
2023/08/06 00:17:21;;;;;;;12.20;6.97;;;;;;;23.21;69.78;99752.66;4956881;28;20046;-58
2023/08/06 00:19:47;;;;;;;10.60;6.15;;;;;;;23.01;70.22;99713.75;4956029;28;20042;-56
2023/08/06 00:22:13;;;;;;;15.02;7.05;;;;;;;23.22;70.60;99751.72;4956945;28;20105;-60
2023/08/06 00:24:39;;;;;;;16.40;6.53;;;;;;;23.06;70.35;99722.16;4956848;28;20050;-59
2023/08/06 00:27:05;;;;;;;13.70;6.20;;;;;;;23.21;70.22;99749.19;4957753;28;20530;-57
2023/08/06 00:29:31;;;;;;;12.70;6.63;;;;;;;23.21;70.32;99759.78;4942798;28;20039;-58
2023/08/06 00:31:57;;;;;;;15.95;6.53;;;;;;;23.17;70.98;99751.25;4943361;28;20116;-57
2023/08/06 00:34:24;;;;;;;11.52;6.30;;;;;;;23.16;71.29;99746.91;4940341;28;20047;-54
2023/08/06 00:36:50;;;;;;;14.40;6.47;;;;;;;23.17;70.56;99756.56;4935771;29;20047;-55
2023/08/06 00:39:16;;;;;;;13.32;6.18;;;;;;;23.16;70.58;99754.03;4953206;28;20471;-54
2023/08/06 00:41:42;;;;;;;10.98;6.25;;;;;;;23.15;71.02;99755.00;4958550;28;20054;-56
2023/08/06 00:44:08;;;;;;;12.70;6.30;;;;;;;23.14;71.13;99758.63;4952812;28;20056;-59
2023/08/06 00:46:34;;;;;;;12.85;6.90;;;;;;;23.10;71.71;99757.19;4924657;29;20062;-57
2023/08/06 00:49:00;;;;;;;11.82;7.03;;;;;;;23.08;72.06;99756.50;4953260;28;20070;-57
2023/08/06 00:51:26;;;;;;;11.93;6.57;;;;;;;23.06;72.26;99758.44;4942652;28;20506;-57
2023/08/06 00:53:52;;;;;;;12.68;6.72;;;;;;;23.02;72.64;99763.16;4940057;29;20062;-57
2023/08/06 00:56:19;;;;;;;10.75;6.95;;;;;;;23.00;72.62;99753.66;4958128;28;20740;-61
2023/08/06 00:58:45;;;;;;;10.93;6.28;;;;;;;22.98;73.17;99760.88;4954404;28;20101;-57
2023/08/06 01:01:11;;;;;;;12.38;6.55;;;;;;;22.93;73.51;99753.31;4948997;28;20413;-57
2023/08/06 01:03:37;;;;;;;11.07;6.60;;;;;;;22.90;73.77;99760.69;4956683;28;20074;-57
2023/08/06 01:06:03;;;;;;;11.77;6.43;;;;;;;22.89;73.95;99759.00;4941158;28;20051;-58
2023/08/06 01:08:55;;;;;;;11.40;6.53;;;;;;;22.84;74.34;99767.34;4951752;28;20066;-58
2023/08/06 01:11:38;;;;;;;9.63;5.93;;;;;;;22.80;74.65;99765.94;4944028;28;20051;-57
2023/08/06 01:14:24;;;;;;;14.32;7.30;;;;;;;22.75;74.85;99765.47;4956973;28;20055;-56
2023/08/06 01:16:51;;;;;;;19.15;7.05;;;;;;;22.71;74.92;99767.56;4954948;28;20047;-57
2023/08/06 01:19:18;;;;;;;10.10;6.82;;;;;;;22.67;75.17;99771.38;4959251;28;20166;-57
2023/08/06 01:21:44;;;;;;;18.13;7.65;;;;;;;22.65;75.39;99764.53;4960016;28;20185;-58
2023/08/06 01:24:10;;;;;;;15.82;7.28;;;;;;;22.59;75.82;99752.63;4949833;28;20499;-57
2023/08/06 01:26:42;;;;;;;15.13;7.28;;;;;;;22.60;75.99;99762.28;4950868;28;20049;-57
2023/08/06 01:29:25;;;;;;;12.55;6.22;;;;;;;22.40;76.05;99734.75;4957761;28;20039;-55
2023/08/06 01:31:52;;;;;;;12.50;6.93;;;;;;;22.57;75.85;99774.91;4936079;28;20038;-56
2023/08/06 01:34:22;;;;;;;9.75;6.32;;;;;;;22.55;75.96;99763.63;4955394;28;20201;-57
2023/08/06 01:36:53;;;;;;;18.13;6.97;;;;;;;22.54;76.02;99769.88;4958543;28;20065;-54
2023/08/06 01:39:21;;;;;;;14.60;6.88;;;;;;;22.38;76.17;99746.44;4942892;28;20877;-56
2023/08/06 01:41:48;;;;;;;10.68;6.47;;;;;;;22.50;76.23;99779.06;4956346;28;20138;-56
2023/08/06 01:44:15;;;;;;;16.08;6.97;;;;;;;22.48;76.63;99773.88;4954666;28;20185;-55
2023/08/06 01:46:41;;;;;;;14.07;6.88;;;;;;;22.48;76.63;99775.69;4930402;29;20109;-57
2023/08/06 01:49:07;;;;;;;15.70;7.25;;;;;;;22.46;76.87;99777.59;4956950;28;20531;-58
2023/08/06 01:51:33;;;;;;;15.43;6.63;;;;;;;22.45;76.96;99781.25;4940465;28;20043;-58
2023/08/06 01:53:59;;;;;;;11.15;6.78;;;;;;;22.45;76.81;99778.59;4943879;28;20043;-58
2023/08/06 01:56:24;;;;;;;12.23;6.82;;;;;;;22.46;77.00;99780.25;4951757;28;20608;-57
2023/08/06 01:58:50;;;;;;;15.57;7.13;;;;;;;22.46;76.95;99781.09;4942998;28;20121;-58
2023/08/06 02:01:17;;;;;;;16.00;6.10;;;;;;;22.45;76.92;99778.59;4938719;28;20043;-57
2023/08/06 02:03:43;;;;;;;11.18;6.90;;;;;;;22.45;77.15;99786.53;4961568;28;20102;-59
2023/08/06 02:06:10;;;;;;;9.45;6.75;;;;;;;22.45;77.53;99791.84;4940992;28;20070;-56
2023/08/06 02:08:36;;;;;;;12.43;6.90;;;;;;;22.43;77.72;99791.94;4957072;28;20581;-58
2023/08/06 02:11:02;;;;;;;15.32;7.07;;;;;;;22.43;77.72;99794.59;4957475;28;20042;-58
2023/08/06 02:13:31;;;;;;;15.70;7.20;;;;;;;22.44;77.67;99796.28;4963056;28;20105;-58
2023/08/06 02:15:57;;;;;;;14.70;6.80;;;;;;;22.44;77.85;99796.28;4937556;28;20039;-58
2023/08/06 02:18:25;;;;;;;13.75;6.65;;;;;;;22.46;77.84;99796.16;4950118;28;20125;-59
2023/08/06 02:20:58;;;;;;;16.15;7.32;;;;;;;22.46;78.08;99797.00;4958372;28;20190;-57
2023/08/06 02:23:24;;;;;;;15.48;7.68;;;;;;;22.47;78.05;99798.69;4962644;28;20039;-57
2023/08/06 02:26:04;;;;;;;20.70;7.47;;;;;;;22.48;78.17;99796.88;4953436;28;20419;-58
2023/08/06 02:28:31;;;;;;;11.82;7.00;;;;;;;22.48;77.96;99797.72;4945318;28;20470;-59
2023/08/06 02:30:57;;;;;;;19.77;7.85;;;;;;;22.49;77.95;99802.06;4935948;28;20062;-58
2023/08/06 02:33:24;;;;;;;11.48;6.85;;;;;;;22.35;77.90;99776.66;4939919;28;20042;-57
2023/08/06 02:35:50;;;;;;;13.23;7.20;;;;;;;22.50;78.01;99798.44;4963740;28;20166;-58
2023/08/06 02:38:16;;;;;;;12.82;7.13;;;;;;;22.51;78.16;99804.56;4945520;28;20047;-57
2023/08/06 02:40:46;;;;;;;14.95;7.05;;;;;;;22.50;77.98;99801.09;4959286;28;20046;-58
2023/08/06 02:43:12;;;;;;;13.70;7.55;;;;;;;22.41;78.12;99777.97;4949929;28;20119;-58
2023/08/06 02:45:39;;;;;;;15.52;7.63;;;;;;;22.53;77.97;99802.63;4958169;28;20062;-56
2023/08/06 02:48:05;;;;;;;13.27;7.32;;;;;;;22.58;77.42;99805.75;4941275;28;20109;-56
2023/08/06 02:50:38;;;;;;;14.45;6.63;;;;;;;22.49;77.40;99783.50;4954171;28;20804;-57
2023/08/06 02:53:04;;;;;;;13.98;7.72;;;;;;;22.66;77.06;99796.19;4953564;28;20431;-58
2023/08/06 02:55:30;;;;;;;15.95;8.30;;;;;;;22.70;76.74;99795.00;4962054;28;20038;-57
2023/08/06 02:57:55;;;;;;;14.68;7.70;;;;;;;22.73;76.26;99788.63;4963430;28;20572;-58
2023/08/06 03:00:22;;;;;;;16.40;7.88;;;;;;;22.77;75.94;99801.47;4958196;28;20042;-55
2023/08/06 03:02:48;;;;;;;12.68;7.32;;;;;;;22.82;76.05;99803.75;4955794;28;20434;-54
2023/08/06 03:05:28;;;;;;;13.18;7.63;;;;;;;22.84;76.03;99807.13;4935819;29;20059;-55
2023/08/06 03:07:54;;;;;;;14.52;7.95;;;;;;;22.88;75.93;99805.91;4942106;28;20565;-56
2023/08/06 03:10:24;;;;;;;15.40;7.20;;;;;;;22.92;75.63;99802.03;4958721;28;20126;-56
2023/08/06 03:12:52;;;;;;;15.32;8.35;;;;;;;22.95;75.40;99795.63;4957094;28;20043;-55
2023/08/06 03:15:19;;;;;;;16.15;8.40;;;;;;;23.00;74.89;99798.72;4962318;28;20054;-54
2023/08/06 03:17:46;;;;;;;18.05;8.00;;;;;;;23.04;74.78;99800.16;4946805;28;20058;-57
2023/08/06 03:20:13;;;;;;;15.88;8.18;;;;;;;23.08;74.39;99798.94;4957499;28;20043;-57
2023/08/06 03:22:40;;;;;;;15.10;8.48;;;;;;;23.13;74.20;99802.06;4957258;28;20039;-57
2023/08/06 03:25:07;;;;;;;12.65;7.65;;;;;;;22.91;74.38;99759.75;4959297;28;20043;-58
2023/08/06 03:27:34;;;;;;;14.23;6.90;;;;;;;23.19;74.33;99806.81;4961491;28;20434;-58
2023/08/06 03:30:01;;;;;;;14.13;8.32;;;;;;;23.21;74.40;99796.94;4961050;28;20050;-57
2023/08/06 03:32:32;;;;;;;15.00;8.23;;;;;;;23.26;74.28;99800.03;4938779;28;20568;-58
2023/08/06 03:34:58;;;;;;;14.90;8.02;;;;;;;23.29;73.95;99801.59;4941706;28;20186;-58
2023/08/06 03:37:31;;;;;;;13.75;7.10;;;;;;;23.34;73.44;99797.59;4953690;28;20078;-56
2023/08/06 03:39:57;;;;;;;14.30;8.07;;;;;;;23.39;73.47;99807.81;4959828;28;20133;-58
2023/08/06 03:42:23;;;;;;;16.60;8.27;;;;;;;23.41;73.26;99792.56;4956642;28;20042;-58
2023/08/06 03:44:49;;;;;;;13.45;8.30;;;;;;;23.48;73.53;99796.41;4945157;28;20062;-58
2023/08/06 03:47:14;;;;;;;19.20;10.00;;;;;;;23.33;73.32;99772.00;4951499;28;20048;-58
2023/08/06 03:49:41;;;;;;;15.43;8.18;;;;;;;23.33;73.32;99756.09;4960638;28;20070;-58
2023/08/06 03:52:09;;;;;;;14.75;8.63;;;;;;;23.62;73.00;99802.22;4923296;28;20618;-58
2023/08/06 03:54:34;;;;;;;19.98;8.88;;;;;;;23.67;72.78;99793.84;4960410;28;20218;-58
2023/08/06 03:57:02;;;;;;;16.05;9.25;;;;;;;23.72;72.44;99788.97;4960647;28;20081;-58
2023/08/06 03:59:27;;;;;;;16.67;9.20;;;;;;;23.81;72.36;99790.84;4956768;28;20577;-59
2023/08/06 04:01:55;;;;;;;17.85;8.50;;;;;;;23.88;72.13;99791.13;4954767;28;20438;-58
2023/08/06 04:04:22;;;;;;;18.30;8.73;;;;;;;23.95;71.87;99790.47;4944420;28;20426;-58
2023/08/06 04:06:48;;;;;;;15.93;9.48;;;;;;;24.03;71.70;99798.59;4944401;28;20047;-58
2023/08/06 04:09:14;;;;;;;16.83;9.60;;;;;;;23.84;71.55;99750.75;4959216;28;20050;-58
2023/08/06 04:11:40;;;;;;;15.80;8.27;;;;;;;24.01;71.29;99767.84;4957523;28;20407;-57
2023/08/06 04:14:08;;;;;;;20.33;9.85;;;;;;;24.20;71.11;99791.81;4952984;28;20461;-59
2023/08/06 04:16:33;;;;;;;16.08;7.90;;;;;;;24.26;71.27;99793.09;4957021;28;20055;-58
2023/08/06 04:18:59;;;;;;;20.92;9.43;;;;;;;24.32;71.16;99789.91;4950912;28;20042;-59
2023/08/06 04:21:25;;;;;;;10.70;7.82;;;;;;;24.22;71.29;99770.44;4957145;28;20058;-60
2023/08/06 04:23:51;;;;;;;17.45;8.68;;;;;;;24.41;71.07;99792.56;4950196;28;20466;-59
2023/08/06 04:26:18;;;;;;;15.75;8.38;;;;;;;24.47;71.03;99794.69;4954886;28;20416;-59
2023/08/06 04:28:44;;;;;;;14.98;8.68;;;;;;;24.57;71.01;99801.81;4958171;28;20053;-58
2023/08/06 04:31:10;;;;;;;14.75;7.78;;;;;;;24.62;70.99;99803.09;4953361;28;20043;-59
2023/08/06 04:33:38;;;;;;;20.35;8.77;;;;;;;24.69;70.58;99795.41;4953893;28;20082;-59
2023/08/06 04:36:08;;;;;;;15.32;8.38;;;;;;;24.77;69.86;99793.69;4959280;28;20057;-58
2023/08/06 04:38:34;;;;;;;13.48;7.68;;;;;;;24.84;69.45;99791.34;4961847;28;20506;-59
2023/08/06 04:41:03;;;;;;;11.38;7.50;;;;;;;24.95;69.19;99796.53;4957097;28;20043;-58
2023/08/06 04:43:29;;;;;;;15.77;8.10;;;;;;;25.03;69.02;99799.31;4938195;29;20051;-57
2023/08/06 04:45:56;;;;;;;18.70;7.95;;;;;;;25.11;68.73;99790.66;4940928;29;20105;-59
2023/08/06 04:48:22;;;;;;;12.80;7.45;;;;;;;25.19;67.90;99788.94;4950417;28;20085;-59
2023/08/06 04:50:50;;;;;;;15.98;8.38;;;;;;;25.14;67.90;99775.22;4961372;28;20049;-60
2023/08/06 04:53:16;;;;;;;17.05;8.55;;;;;;;25.36;67.80;99789.19;4945528;28;20142;-59
2023/08/06 04:55:42;;;;;;;15.65;7.65;;;;;;;25.43;67.30;99798.28;4953867;28;20067;-59
2023/08/06 04:58:12;;;;;;;15.98;8.73;;;;;;;25.52;66.64;99800.06;4956814;28;20058;-59
2023/08/06 05:00:37;;;;;;;15.55;6.90;;;;;;;25.60;66.62;99794.88;4972717;28;20035;-59
2023/08/06 05:03:04;;;;;;;14.15;6.82;;;;;;;25.67;66.05;99795.97;4951894;28;20062;-58
2023/08/06 05:05:30;;;;;;;15.20;6.65;;;;;;;25.78;64.65;99797.63;4959899;28;20039;-58
2023/08/06 05:07:57;;;;;;;9.70;5.25;;;;;;;25.65;63.46;99755.31;4961104;28;20533;-58
2023/08/06 05:10:27;;;;;;;12.20;5.10;;;;;;;25.99;62.35;99798.22;4956157;28;20043;-58
2023/08/06 05:12:53;;;;;;;15.52;5.97;;;;;;;26.07;61.52;99791.16;4952166;28;20467;-59
2023/08/06 05:15:19;;;;;;;9.23;5.18;;;;;;;26.17;60.72;99786.59;4958027;28;20114;-60
2023/08/06 05:17:45;;;;;;;8.30;5.82;;;;;;;26.26;60.46;99794.75;4957813;28;20145;-59
2023/08/06 05:20:11;;;;;;;11.35;5.57;;;;;;;26.27;60.14;99772.44;4956244;28;20422;-59
2023/08/06 05:22:37;;;;;;;9.15;5.90;;;;;;;26.46;59.86;99781.13;4955701;28;20519;-59
2023/08/06 05:25:04;;;;;;;10.52;5.18;;;;;;;26.58;59.51;99784.41;4957956;28;20051;-59
2023/08/06 05:27:30;;;;;;;7.28;5.40;;;;;;;26.69;59.28;99784.19;4945203;28;20047;-59
2023/08/06 05:29:56;;;;;;;9.27;5.80;;;;;;;26.79;58.77;99784.09;4961506;28;20636;-59
2023/08/06 05:32:22;;;;;;;14.15;6.20;;;;;;;26.89;59.20;99777.72;4946323;28;20053;-59
2023/08/06 05:34:48;;;;;;;12.32;5.50;;;;;;;27.02;58.96;99779.13;4961036;28;20035;-60
2023/08/06 05:37:14;;;;;;;12.18;5.28;;;;;;;27.04;57.87;99763.81;4968458;28;20065;-60
2023/08/06 05:39:40;;;;;;;13.93;5.65;;;;;;;27.12;57.79;99759.38;4962547;28;20426;-60
2023/08/06 05:42:06;;;;;;;10.05;5.15;;;;;;;27.31;57.39;99767.19;4945604;28;20043;-59
2023/08/06 05:44:32;;;;;;;8.27;4.90;;;;;;;27.39;56.34;99767.22;4949471;28;20054;-61
2023/08/06 05:46:58;;;;;;;10.55;5.43;;;;;;;27.50;56.00;99779.50;4948982;28;20047;-59
2023/08/06 05:49:24;;;;;;;12.13;5.05;;;;;;;27.59;56.02;99775.88;4959939;28;20418;-59
2023/08/06 05:51:50;;;;;;;9.27;4.88;;;;;;;27.68;55.07;99774.94;4956503;28;20050;-59
2023/08/06 05:54:15;;;;;;;7.85;4.60;;;;;;;27.79;54.63;99773.81;4959438;28;20470;-59
2023/08/06 05:56:41;;;;;;;8.90;4.80;;;;;;;27.87;54.21;99773.84;4960840;28;20051;-59
2023/08/06 05:59:07;;;;;;;9.15;4.65;;;;;;;28.00;54.03;99776.88;4959567;28;20126;-59
2023/08/06 06:01:33;;;;;;;8.75;5.00;;;;;;;28.15;53.88;99771.81;4958947;28;20049;-59
2023/08/06 06:03:59;;;;;;;9.30;4.72;;;;;;;28.29;53.71;99773.84;4961555;28;20057;-59
2023/08/06 06:06:25;;;;;;;12.82;4.93;;;;;;;28.45;53.34;99779.22;4959893;28;20046;-60
2023/08/06 06:08:51;;;;;;;8.20;4.72;;;;;;;28.52;52.46;99768.72;4965626;28;20075;-59
2023/08/06 06:11:19;;;;;;;10.15;4.30;;;;;;;28.64;52.14;99768.22;4957631;28;20133;-60
2023/08/06 06:13:45;;;;;;;11.23;4.53;;;;;;;28.76;51.63;99770.59;4923322;28;20582;-60
2023/08/06 06:16:11;;;;;;;9.18;4.70;;;;;;;28.86;51.56;99780.13;4958951;28;20106;-60
2023/08/06 06:18:37;;;;;;;7.50;3.95;;;;;;;29.00;50.82;99771.41;4949326;28;20044;-60
2023/08/06 06:21:03;;;;;;;8.27;4.30;;;;;;;29.12;50.17;99771.06;4963876;28;20130;-60
2023/08/06 06:23:28;;;;;;;4.97;3.60;;;;;;;29.21;49.77;99752.16;4951845;28;20578;-60
2023/08/06 06:25:55;;;;;;;9.00;4.80;;;;;;;29.43;49.18;99754.13;4960431;28;20065;-60
2023/08/06 06:28:21;;;;;;;6.13;4.20;;;;;;;29.60;48.90;99768.34;4958171;28;20153;-60
2023/08/06 06:30:48;;;;;;;6.68;4.20;;;;;;;29.76;48.34;99762.06;4940823;29;20079;-61
2023/08/06 06:33:14;;;;;;;6.07;4.30;;;;;;;30.24;47.78;99769.94;4936518;28;20134;-61
2023/08/06 06:35:40;;;;;;;8.38;3.90;;;;;;;31.20;46.62;99761.31;4949349;28;20038;-59
2023/08/06 06:38:05;;;;;;;13.07;4.70;;;;;;;32.32;44.17;99766.41;4952361;28;20054;-61
2023/08/06 06:40:32;;;;;;;7.20;4.20;;;;;;;33.24;42.33;99768.34;4963512;28;20514;-60
2023/08/06 06:42:59;;;;;;;6.97;3.95;;;;;;;33.87;40.43;99767.25;4957182;28;20049;-61
2023/08/06 06:45:24;;;;;;;6.38;3.67;;;;;;;34.56;39.38;99772.50;4962403;28;20043;-61
2023/08/06 06:47:50;;;;;;;8.45;4.13;;;;;;;35.07;37.63;99762.78;4953184;28;20529;-60
2023/08/06 06:50:16;;;;;;;5.88;4.30;;;;;;;35.54;36.23;99759.00;4957894;28;20533;-60
2023/08/06 06:52:42;;;;;;;5.28;3.90;;;;;;;36.43;34.93;99767.19;4946026;28;20051;-61
2023/08/06 06:55:08;;;;;;;7.63;3.90;;;;;;;37.40;33.59;99762.28;4958521;28;20426;-60
2023/08/06 06:57:34;;;;;;;7.22;3.88;;;;;;;37.78;32.33;99732.25;4962989;28;20062;-58
2023/08/06 06:59:59;;;;;;;8.05;3.42;;;;;;;38.82;31.48;99768.00;4962655;28;20039;-61
2023/08/06 07:02:25;;;;;;;6.95;4.32;;;;;;;39.62;29.58;99768.28;4954409;28;20038;-61
2023/08/06 07:04:51;;;;;;;6.90;4.55;;;;;;;39.94;28.93;99765.19;4963067;28;20070;-60
2023/08/06 07:07:17;;;;;;;8.02;3.90;;;;;;;40.10;28.64;99767.94;4960573;28;20034;-59
2023/08/06 07:09:43;;;;;;;6.90;4.00;;;;;;;40.34;27.79;99748.81;4957414;28;20050;-61
2023/08/06 07:12:08;;;;;;;8.75;4.05;;;;;;;40.50;27.45;99756.19;4956073;28;20050;-60
2023/08/06 07:14:34;;;;;;;10.60;4.15;;;;;;;41.04;27.02;99760.97;4957277;28;20055;-60
2023/08/06 07:17:01;;;;;;;7.30;3.60;;;;;;;41.40;26.21;99764.25;4957152;28;20053;-60
2023/08/06 07:19:27;;;;;;;6.63;3.53;;;;;;;41.15;26.18;99755.66;4955287;28;20507;-61
2023/08/06 07:21:52;;;;;;;7.38;3.80;;;;;;;41.46;25.76;99754.25;4955158;28;20047;-62
2023/08/06 07:24:18;;;;;;;6.72;3.80;;;;;;;41.94;25.20;99758.97;4948024;28;20046;-60
2023/08/06 07:26:44;;;;;;;7.53;3.92;;;;;;;42.07;25.11;99758.59;4974099;28;20126;-61
2023/08/06 07:29:10;;;;;;;10.02;4.63;;;;;;;42.72;24.33;99766.66;4959377;28;20491;-61
2023/08/06 07:31:36;;;;;;;7.25;3.90;;;;;;;42.87;24.17;99757.78;4952738;28;20039;-61
2023/08/06 07:34:02;;;;;;;6.88;4.20;;;;;;;43.37;23.50;99754.56;4951666;28;20043;-62
2023/08/06 07:36:28;;;;;;;4.55;4.10;;;;;;;43.58;23.17;99752.78;4945963;28;20091;-63
2023/08/06 07:38:56;;;;;;;5.97;4.70;;;;;;;43.57;23.46;99754.69;4960074;28;20067;-62
2023/08/06 07:41:23;;;;;;;4.90;4.35;;;;;;;44.17;22.46;99734.94;4944186;28;20418;-63
2023/08/06 07:43:49;;;;;;;8.20;4.38;;;;;;;44.62;22.15;99741.56;4958589;28;20074;-61
2023/08/06 07:46:15;;;;;;;6.57;3.50;;;;;;;44.54;22.12;99745.69;4958766;28;20497;-62
2023/08/06 07:48:42;;;;;;;7.27;4.80;;;;;;;43.75;22.57;99721.34;4945180;28;20055;-59
2023/08/06 07:51:08;;;;;;;7.60;4.70;;;;;;;43.47;23.46;99744.47;4959212;28;20102;-65
2023/08/06 07:53:34;;;;;;;7.20;4.00;;;;;;;44.21;22.43;99743.44;4932197;28;20118;-63
2023/08/06 07:56:02;;;;;;;5.45;3.80;;;;;;;44.33;22.32;99747.56;4961985;28;20038;-61
2023/08/06 07:58:29;;;;;;;5.38;4.30;;;;;;;44.54;21.68;99723.75;4948850;28;20046;-61
2023/08/06 08:00:56;;;;;;;7.07;4.25;;;;;;;45.02;21.59;99743.47;4962113;28;20121;-64
2023/08/06 08:03:22;;;;;;;4.05;3.75;;;;;;;44.33;22.05;99753.06;4950615;28;20112;-63
2023/08/06 08:05:48;;;;;;;6.82;4.18;;;;;;;43.96;22.50;99732.41;4954812;28;20070;-62
2023/08/06 08:08:14;;;;;;;5.07;4.07;;;;;;;44.18;22.19;99728.31;4941905;28;20050;-61
2023/08/06 08:10:40;;;;;;;4.65;4.25;;;;;;;44.15;22.12;99717.91;4960929;28;20046;-62
2023/08/06 08:13:06;;;;;;;8.52;4.82;;;;;;;44.22;22.40;99721.22;4954611;28;20051;-61
2023/08/06 08:15:32;;;;;;;9.73;4.47;;;;;;;44.64;21.99;99728.41;4951381;28;20577;-63
2023/08/06 08:17:59;;;;;;;4.18;3.78;;;;;;;45.23;21.88;99722.31;4954920;28;20515;-62
2023/08/06 08:20:31;;;;;;;5.78;4.55;;;;;;;45.49;21.48;99713.75;4961021;28;20129;-62
2023/08/06 08:22:59;;;;;;;7.70;4.03;;;;;;;45.42;21.07;99702.25;4959681;28;20129;-62
2023/08/06 08:25:25;;;;;;;5.60;4.38;;;;;;;44.90;21.41;99707.28;4940531;28;20038;-61
2023/08/06 08:27:51;;;;;;;4.93;4.38;;;;;;;44.37;22.07;99722.38;4956403;28;20073;-62
2023/08/06 08:30:17;;;;;;;5.28;4.25;;;;;;;44.53;22.07;99721.28;4959463;28;20042;-61
2023/08/06 08:32:43;;;;;;;5.75;3.88;;;;;;;44.59;21.84;99704.56;4938051;29;20042;-62
2023/08/06 08:35:12;;;;;;;7.65;4.10;;;;;;;45.09;21.60;99713.84;4959270;28;20047;-62
2023/08/06 08:37:38;;;;;;;5.30;4.13;;;;;;;45.76;21.09;99709.78;4955705;28;20047;-61
2023/08/06 08:40:06;;;;;;;7.40;4.40;;;;;;;46.55;20.38;99697.75;4948930;28;20079;-62
2023/08/06 08:42:32;;;;;;;8.10;4.53;;;;;;;46.20;20.47;99704.34;4936690;28;20067;-63
2023/08/06 08:44:58;;;;;;;4.70;4.28;;;;;;;46.11;20.79;99708.78;4949513;28;20042;-62
2023/08/06 08:47:24;;;;;;;5.00;4.60;;;;;;;46.11;20.32;99714.28;4939835;28;20537;-64
2023/08/06 08:49:55;;;;;;;5.63;4.88;;;;;;;45.75;21.13;99699.91;4938822;28;20075;-62
2023/08/06 08:52:22;;;;;;;8.93;4.45;;;;;;;45.36;21.48;99710.75;4952220;28;20051;-61
2023/08/06 08:54:51;;;;;;;15.90;5.47;;;;;;;45.76;21.44;99699.63;4949374;28;20086;-62
2023/08/06 08:57:17;;;;;;;5.25;4.53;;;;;;;46.85;19.92;99707.69;4955795;28;20039;-63
2023/08/06 08:59:43;;;;;;;5.90;4.65;;;;;;;46.18;20.50;99710.13;4947130;28;20426;-56
2023/08/06 09:02:11;;;;;;;7.32;4.70;;;;;;;46.34;20.43;99706.16;4951808;28;20146;-62
2023/08/06 09:04:37;;;;;;;6.47;4.88;;;;;;;45.86;20.92;99702.34;4953513;28;20133;-63
2023/08/06 09:07:04;;;;;;;8.37;4.63;;;;;;;46.17;20.54;99699.41;4955399;28;20053;-62
2023/08/06 09:09:32;;;;;;;11.05;5.35;;;;;;;46.72;20.62;99709.19;4948604;28;20355;-61
2023/08/06 09:12:02;;;;;;;10.55;5.15;;;;;;;46.06;20.66;99700.59;4936195;29;20094;-61
2023/08/06 09:14:28;;;;;;;6.20;5.00;;;;;;;45.39;21.71;99693.72;4949016;28;20049;-62
2023/08/06 09:16:54;;;;;;;6.47;4.90;;;;;;;46.19;20.87;99697.22;4950825;28;20043;-61
2023/08/06 09:19:20;;;;;;;6.73;5.57;;;;;;;46.30;20.92;99710.59;4953255;28;20054;-63
2023/08/06 09:21:48;;;;;;;5.97;5.30;;;;;;;45.75;21.20;99655.94;4945516;28;20039;-61
2023/08/06 09:24:15;;;;;;;9.35;5.30;;;;;;;46.13;21.34;99698.31;4931486;28;20059;-61
2023/08/06 09:26:43;;;;;;;6.72;5.57;;;;;;;45.90;21.38;99664.94;4952279;28;20043;-62
2023/08/06 09:29:11;;;;;;;8.13;5.38;;;;;;;46.04;21.43;99681.63;4955157;28;20040;-62
2023/08/06 09:31:48;;;;;;;7.65;5.72;;;;;;;46.35;20.93;99690.47;4962155;28;20053;-62
2023/08/06 09:34:18;;;;;;;5.80;5.30;;;;;;;47.21;20.34;99684.19;4952119;28;20640;-62
2023/08/06 09:36:47;;;;;;;6.30;5.70;;;;;;;47.63;20.45;99686.19;4954190;28;20047;-63
2023/08/06 09:39:17;;;;;;;9.73;6.07;;;;;;;48.13;19.88;99684.66;4950090;28;20572;-62
2023/08/06 09:41:44;;;;;;;6.57;5.82;;;;;;;48.52;19.51;99692.59;4957988;28;20102;-62
2023/08/06 09:44:17;;;;;;;11.75;6.15;;;;;;;48.20;19.56;99665.78;4955109;28;20527;-62
2023/08/06 09:46:54;;;;;;;9.93;5.90;;;;;;;47.82;20.06;99684.25;4956215;28;20046;-61
2023/08/06 09:49:24;;;;;;;10.52;6.03;;;;;;;47.25;20.67;99676.97;4945342;28;20034;-48
2023/08/06 09:51:51;;;;;;;7.10;6.10;;;;;;;47.51;20.00;99644.44;4952182;28;20139;-47
2023/08/06 12:05:00;;;;;;;7.95;5.47;;;;;;;43.31;24.07;99555.75;5049375;28;20421;-52
2023/08/06 12:07:28;;;;;;;6.13;4.60;;;;;;;42.93;24.26;99565.16;5045603;28;20148;-65
2023/08/06 12:09:54;;;;;;;6.47;4.80;;;;;;;41.92;25.62;99562.53;5045880;28;20120;-61
2023/08/06 12:12:20;;;;;;;7.80;5.20;;;;;;;40.99;26.52;99550.78;5043659;28;20175;-61
2023/08/06 12:14:45;;;;;;;9.27;5.10;;;;;;;41.80;25.80;99554.47;5048483;28;20041;-62
2023/08/06 12:17:11;;;;;;;7.43;5.03;;;;;;;42.35;25.42;99547.03;5051435;28;20045;-62
2023/08/06 12:19:37;;;;;;;5.22;4.72;;;;;;;41.15;26.03;99534.63;5038769;28;20147;-63
2023/08/06 12:22:03;;;;;;;8.15;5.45;;;;;;;41.28;25.56;99518.72;5042650;28;20230;-60
2023/08/06 12:24:31;;;;;;;6.95;5.10;;;;;;;42.27;24.60;99545.59;5048523;28;20037;-65
2023/08/06 12:26:58;;;;;;;7.00;4.47;;;;;;;42.20;24.96;99544.97;5048956;28;20057;-63
2023/08/06 12:29:25;;;;;;;8.40;4.60;;;;;;;41.70;25.22;99542.63;5041444;28;20067;-59
2023/08/06 12:31:51;;;;;;;7.95;4.75;;;;;;;42.42;24.51;99542.97;5044235;28;20780;-49
2023/08/06 12:34:17;;;;;;;7.60;4.85;;;;;;;43.02;24.17;99533.47;5023206;28;20045;-63
2023/08/06 12:36:43;;;;;;;8.48;5.57;;;;;;;43.92;23.56;99545.75;5018619;28;20321;-61
2023/08/06 12:39:10;;;;;;;6.72;5.10;;;;;;;44.05;23.40;99534.25;5036196;28;20064;-61
2023/08/06 12:41:36;;;;;;;7.35;5.10;;;;;;;44.01;23.55;99537.81;5047327;28;20068;-60
2023/08/06 12:44:02;;;;;;;8.00;5.22;;;;;;;44.46;23.17;99535.03;5040729;28;20069;-60
2023/08/06 12:46:28;;;;;;;10.38;5.72;;;;;;;44.23;23.16;99532.88;5042257;28;20529;-60
2023/08/06 12:48:54;;;;;;;9.75;5.65;;;;;;;44.20;23.13;99527.94;5040609;28;20466;-62
2023/08/06 12:51:20;;;;;;;12.77;5.68;;;;;;;43.78;23.46;99541.91;5037983;28;20471;-60
2023/08/06 12:53:45;;;;;;;10.95;5.05;;;;;;;41.71;25.73;99528.72;5046539;28;20037;-61
2023/08/06 12:56:11;;;;;;;8.80;4.82;;;;;;;40.41;26.93;99526.00;5048341;28;20052;-61
2023/08/06 12:58:39;;;;;;;7.20;5.50;;;;;;;40.24;27.78;99527.91;5043536;28;20045;-60
2023/08/06 13:01:05;;;;;;;9.77;4.97;;;;;;;40.95;26.88;99527.00;5041217;28;20066;-60
2023/08/06 13:03:31;;;;;;;8.38;5.13;;;;;;;41.32;26.30;99528.03;5047269;28;20084;-61
2023/08/06 13:05:58;;;;;;;9.35;4.22;;;;;;;40.81;26.37;99510.22;5035494;28;20111;-61
2023/08/06 13:08:24;;;;;;;9.87;4.73;;;;;;;40.31;27.07;99514.94;5040565;28;20060;-59
2023/08/06 13:10:50;;;;;;;7.82;4.43;;;;;;;39.52;28.27;99514.94;5057728;28;20072;-60
2023/08/06 13:13:16;;;;;;;5.78;4.55;;;;;;;38.87;28.68;99489.97;5036352;28;20407;-60
2023/08/06 13:15:42;;;;;;;7.78;4.35;;;;;;;38.35;29.56;99502.66;5040074;28;20049;-60
2023/08/06 13:18:07;;;;;;;6.85;4.00;;;;;;;37.97;30.26;99506.63;5030301;28;20107;-59
2023/08/06 13:20:33;;;;;;;9.77;4.20;;;;;;;37.33;31.33;99482.97;5033037;28;20048;-62
2023/08/06 13:23:01;;;;;;;7.63;4.63;;;;;;;37.08;31.30;99501.25;5036447;28;20099;-60
2023/08/06 13:25:28;;;;;;;5.03;4.45;;;;;;;36.56;32.04;99481.00;5021571;28;20854;-59
2023/08/06 13:27:54;;;;;;;9.98;4.50;;;;;;;36.29;32.54;99497.53;5022886;28;20579;-61
2023/08/06 13:30:20;;;;;;;7.15;4.43;;;;;;;36.12;32.89;99496.41;5025879;28;20042;-59
2023/08/06 13:32:46;;;;;;;7.40;4.65;;;;;;;35.74;33.94;99483.00;5027074;28;20033;-58
2023/08/06 13:35:12;;;;;;;7.25;5.00;;;;;;;35.70;33.90;99494.50;5025513;28;20049;-58
2023/08/06 13:37:39;;;;;;;4.47;4.07;;;;;;;35.54;34.26;99495.81;5022316;28;20535;-59